Time;durP1;ratioP1;P1;durP2;ratioP2;P2;SDS_P1;SDS_P2;PMS_P1;PMS_P2;Temp;Humidity;BMP_temperature;BMP_pressure;BME280_temperature;BME280_humidity;BME280_pressure;Samples;Min_cycle;Max_cycle;Signal;HPM_P1;HPM_P2
2021/06/09 00:00:24;;;;;;;17.23;15.55;;;15.70;99.90;;;;;;4997475;28;20502;-89
2021/06/09 00:02:51;;;;;;;17.75;15.40;;;15.70;99.90;;;;;;5014306;28;20142;-88
2021/06/09 00:05:18;;;;;;;18.40;15.98;;;15.70;99.90;;;;;;4997494;28;20056;-88
2021/06/09 00:07:45;;;;;;;17.73;16.10;;;15.70;99.90;;;;;;4997722;28;20052;-88
2021/06/09 00:10:13;;;;;;;17.02;15.45;;;15.60;99.90;;;;;;4997986;28;20406;-87
2021/06/09 00:12:40;;;;;;;17.88;16.08;;;15.60;99.90;;;;;;5014802;28;20383;-88
2021/06/09 00:15:12;;;;;;;16.48;14.77;;;15.60;99.90;;;;;;4997079;28;20119;-88
2021/06/09 00:17:40;;;;;;;17.48;15.18;;;15.60;99.90;;;;;;4996847;28;20049;-88
2021/06/09 00:20:15;;;;;;;17.50;15.90;;;15.60;99.90;;;;;;4997145;28;20045;-88
2021/06/09 00:22:42;;;;;;;22.65;15.57;;;15.60;99.90;;;;;;4997374;28;20048;-88
2021/06/09 00:25:14;;;;;;;16.77;15.18;;;15.60;99.90;;;;;;4997111;28;20056;-87
2021/06/09 00:27:52;;;;;;;17.33;15.65;;;15.60;99.90;;;;;;4997018;28;20068;-88
2021/06/09 00:30:23;;;;;;;17.52;15.27;;;15.70;99.90;;;;;;4997140;28;20044;-88
2021/06/09 00:32:50;;;;;;;16.73;15.25;;;15.70;99.90;;;;;;5014311;28;20184;-88
2021/06/09 00:35:17;;;;;;;18.25;16.33;;;15.70;99.90;;;;;;4996807;28;20056;-88
2021/06/09 00:37:44;;;;;;;18.10;16.27;;;15.70;99.90;;;;;;4997094;28;20167;-88
2021/06/09 00:40:12;;;;;;;15.65;14.05;;;15.70;99.90;;;;;;5014357;28;20058;-88
2021/06/09 00:42:39;;;;;;;17.17;15.38;;;15.70;99.90;;;;;;5014052;28;20077;-88
2021/06/09 00:45:07;;;;;;;16.70;15.13;;;15.70;99.90;;;;;;4996868;28;20054;-87
2021/06/09 00:47:35;;;;;;;16.88;15.27;;;15.70;99.90;;;;;;5013994;28;20060;-88
2021/06/09 00:50:02;;;;;;;18.00;16.30;;;15.70;99.90;;;;;;5014616;28;20056;-87
2021/06/09 00:52:30;;;;;;;17.83;16.02;;;15.70;99.90;;;;;;5014352;28;20422;-88
2021/06/09 00:54:57;;;;;;;16.42;14.93;;;15.70;99.90;;;;;;4996456;28;20050;-87
2021/06/09 00:57:24;;;;;;;15.80;14.20;;;15.70;99.90;;;;;;4996761;28;20046;-88
2021/06/09 00:59:51;;;;;;;16.95;15.18;;;15.70;99.90;;;;;;4996721;28;20050;-87
2021/06/09 01:02:18;;;;;;;17.27;15.57;;;15.70;99.90;;;;;;4996664;28;20050;-87
2021/06/09 01:04:45;;;;;;;25.73;16.00;;;15.60;99.90;;;;;;4996589;28;20050;-88
2021/06/09 01:07:15;;;;;;;17.23;14.88;;;15.70;99.90;;;;;;4996791;28;20049;-88
2021/06/09 01:09:42;;;;;;;17.98;16.02;;;15.70;99.90;;;;;;5001312;28;20101;-88
2021/06/09 01:12:09;;;;;;;17.15;15.50;;;15.70;99.90;;;;;;5016869;28;20089;-88
2021/06/09 01:14:36;;;;;;;17.52;15.82;;;15.70;99.90;;;;;;4998229;28;20050;-88
2021/06/09 01:17:03;;;;;;;17.85;16.02;;;15.70;99.90;;;;;;4996269;28;20060;-88
2021/06/09 01:19:30;;;;;;;18.02;16.33;;;15.60;99.90;;;;;;5013793;28;20494;-87
2021/06/09 01:21:56;;;;;;;17.65;15.80;;;15.50;99.90;;;;;;4996238;28;20064;-88
2021/06/09 01:24:23;;;;;;;17.73;15.90;;;15.50;99.90;;;;;;4996569;28;20088;-87
2021/06/09 01:26:50;;;;;;;19.67;17.08;;;15.50;99.90;;;;;;4996582;28;20046;-89
2021/06/09 01:29:18;;;;;;;20.35;16.27;;;15.40;99.90;;;;;;4996724;28;20049;-88
2021/06/09 01:31:45;;;;;;;17.20;15.60;;;15.40;99.90;;;;;;4996970;28;20133;-88
2021/06/09 01:34:12;;;;;;;17.92;15.05;;;15.50;99.90;;;;;;5013892;28;20076;-88
2021/06/09 01:36:41;;;;;;;17.17;15.43;;;15.50;99.90;;;;;;4996278;28;20048;-88
2021/06/09 01:39:13;;;;;;;16.77;15.23;;;15.50;99.90;;;;;;5013371;28;20050;-88
2021/06/09 01:41:44;;;;;;;18.58;16.52;;;15.50;99.90;;;;;;4996705;28;20050;-89
2021/06/09 01:44:12;;;;;;;17.95;16.13;;;15.40;99.90;;;;;;4996775;28;20132;-88
2021/06/09 01:46:40;;;;;;;17.50;15.70;;;15.50;99.90;;;;;;4996097;28;20042;-88
2021/06/09 01:49:09;;;;;;;16.60;14.98;;;15.50;99.90;;;;;;4996316;28;20493;-88
2021/06/09 01:51:37;;;;;;;17.35;15.70;;;15.50;99.90;;;;;;4996287;28;20054;-89
2021/06/09 01:54:06;;;;;;;17.98;16.17;;;15.50;99.90;;;;;;4996476;28;20064;-88
2021/06/09 01:56:33;;;;;;;19.67;17.63;;;15.50;99.90;;;;;;4996282;28;20082;-88
2021/06/09 01:59:18;;;;;;;17.42;15.73;;;15.40;99.90;;;;;;4995975;28;20114;-88
2021/06/09 02:01:49;;;;;;;19.05;17.08;;;15.30;99.90;;;;;;4995884;28;20050;-88
2021/06/09 02:04:18;;;;;;;19.52;17.48;;;15.20;99.90;;;;;;5009453;28;20054;-90
2021/06/09 02:06:45;;;;;;;18.95;17.13;;;15.10;99.90;;;;;;4995941;28;20470;-89
2021/06/09 02:09:13;;;;;;;19.83;17.83;;;15.10;99.90;;;;;;5013380;28;20080;-89
2021/06/09 02:11:42;;;;;;;19.30;17.23;;;15.10;99.90;;;;;;5013441;28;20084;-89
2021/06/09 02:14:09;;;;;;;20.88;18.38;;;15.10;99.90;;;;;;4996094;28;20100;-89
2021/06/09 02:16:42;;;;;;;20.15;17.27;;;15.10;99.90;;;;;;4995649;28;20060;-89
2021/06/09 02:19:09;;;;;;;20.70;17.83;;;15.00;99.90;;;;;;4995953;28;20050;-89
2021/06/09 02:21:37;;;;;;;18.30;16.55;;;14.90;99.90;;;;;;5013059;28;20056;-89
2021/06/09 02:24:05;;;;;;;20.92;18.83;;;14.80;99.90;;;;;;4998158;28;20409;-89
2021/06/09 02:26:33;;;;;;;20.15;18.17;;;14.90;99.90;;;;;;5016600;28;20060;-89
2021/06/09 02:29:01;;;;;;;19.58;17.60;;;14.90;99.90;;;;;;5000509;28;20410;-89
2021/06/09 02:31:28;;;;;;;20.42;18.42;;;14.90;99.90;;;;;;5018200;28;20034;-89
2021/06/09 02:33:56;;;;;;;21.00;18.75;;;14.90;99.90;;;;;;5001454;28;20418;-89
2021/06/09 02:36:24;;;;;;;21.55;18.17;;;14.90;99.90;;;;;;4999515;28;20049;-90
2021/06/09 02:38:52;;;;;;;21.42;18.25;;;14.90;99.90;;;;;;4998983;28;20050;-89
2021/06/09 02:41:19;;;;;;;20.63;18.42;;;14.90;99.90;;;;;;5016509;28;20100;-88
2021/06/09 02:43:48;;;;;;;19.90;17.98;;;14.90;99.90;;;;;;4999154;28;20066;-88
2021/06/09 02:46:29;;;;;;;19.88;17.73;;;15.00;99.90;;;;;;4999054;28;20491;-89
2021/06/09 02:49:02;;;;;;;19.35;17.42;;;14.90;99.90;;;;;;4999001;28;20509;-89
2021/06/09 02:51:44;;;;;;;19.75;17.75;;;14.90;99.90;;;;;;4999093;28;20050;-89
2021/06/09 02:54:30;;;;;;;23.23;19.77;;;14.90;99.90;;;;;;4999296;28;20058;-89
2021/06/09 02:57:03;;;;;;;20.75;18.60;;;14.90;99.90;;;;;;4998882;28;20472;-89
2021/06/09 02:59:43;;;;;;;21.58;19.40;;;14.80;99.90;;;;;;4998993;28;20046;-89
2021/06/09 03:02:13;;;;;;;22.88;19.33;;;14.80;99.90;;;;;;4998855;28;20057;-89
2021/06/09 03:04:48;;;;;;;21.38;18.95;;;14.80;99.90;;;;;;5016082;28;20129;-89
2021/06/09 03:07:28;;;;;;;19.65;17.63;;;14.90;99.90;;;;;;5015998;28;20082;-89
2021/06/09 03:10:26;;;;;;;21.13;19.02;;;14.90;99.90;;;;;;5016051;28;20054;-88
2021/06/09 03:13:25;;;;;;;23.98;18.13;;;15.00;99.90;;;;;;4998717;28;20116;-88
2021/06/09 03:16:11;;;;;;;21.20;18.77;;;15.00;99.90;;;;;;4998643;28;20132;-89
2021/06/09 03:18:45;;;;;;;18.98;17.10;;;15.00;99.90;;;;;;4998623;28;20053;-89
2021/06/09 03:21:16;;;;;;;19.83;17.83;;;15.00;99.90;;;;;;4998691;28;20085;-89
2021/06/09 03:24:14;;;;;;;19.65;17.75;;;15.00;99.90;;;;;;5015741;28;20042;-89
2021/06/09 03:26:55;;;;;;;19.80;17.88;;;15.00;99.90;;;;;;4998195;28;20050;-89
2021/06/09 03:29:50;;;;;;;19.77;17.25;;;15.00;99.90;;;;;;4998724;28;20509;-89
2021/06/09 03:32:32;;;;;;;19.23;17.33;;;15.10;99.90;;;;;;4998956;28;20532;-88
2021/06/09 03:35:05;;;;;;;18.05;16.27;;;15.20;99.90;;;;;;4997672;28;20050;-89
2021/06/09 03:37:36;;;;;;;19.20;17.40;;;15.20;99.90;;;;;;4998418;28;20049;-89
2021/06/09 03:40:06;;;;;;;21.40;19.20;;;15.30;99.90;;;;;;4998352;28;20060;-89
2021/06/09 03:42:36;;;;;;;20.25;18.08;;;15.30;99.90;;;;;;4998344;28;20053;-89
2021/06/09 03:45:05;;;;;;;19.15;17.05;;;15.30;99.90;;;;;;4997996;28;20053;-89
2021/06/09 03:47:33;;;;;;;18.75;16.80;;;15.40;99.90;;;;;;5016850;28;20080;-88
2021/06/09 03:50:01;;;;;;;17.58;16.02;;;15.60;99.90;;;;;;5017273;28;20065;-88
2021/06/09 03:52:28;;;;;;;19.63;16.65;;;15.70;99.90;;;;;;4998727;28;20092;-89
2021/06/09 03:54:58;;;;;;;18.48;16.60;;;15.90;99.90;;;;;;5014970;28;20052;-89
2021/06/09 03:57:26;;;;;;;17.08;15.30;;;15.90;99.90;;;;;;4997845;28;20046;-89
2021/06/09 03:59:54;;;;;;;17.10;15.02;;;15.90;99.90;;;;;;4997822;28;20049;-89
2021/06/09 04:02:25;;;;;;;16.90;15.15;;;16.00;99.90;;;;;;4997858;28;20050;-89
2021/06/09 04:04:53;;;;;;;17.38;15.05;;;16.10;99.90;;;;;;5014682;28;20054;-90
2021/06/09 04:07:22;;;;;;;15.88;14.35;;;16.20;99.90;;;;;;4997606;28;20494;-89
2021/06/09 04:09:51;;;;;;;15.70;14.23;;;16.30;99.90;;;;;;4997609;28;20046;-89
2021/06/09 04:12:20;;;;;;;17.92;16.05;;;16.30;99.90;;;;;;4997643;28;20471;-90
2021/06/09 04:14:50;;;;;;;17.42;15.77;;;16.40;99.90;;;;;;4997502;28;20054;-89
2021/06/09 04:17:24;;;;;;;17.50;15.10;;;16.40;99.90;;;;;;4997403;28;20054;-89
2021/06/09 04:19:54;;;;;;;16.42;14.70;;;16.40;99.90;;;;;;4997215;28;20046;-89
2021/06/09 04:22:24;;;;;;;15.02;13.68;;;16.50;99.90;;;;;;5014769;28;20417;-89
2021/06/09 04:24:51;;;;;;;15.38;13.95;;;16.50;99.90;;;;;;5014638;28;20046;-89
2021/06/09 04:27:30;;;;;;;16.75;13.90;;;16.50;99.90;;;;;;4997704;28;20054;-89
2021/06/09 04:29:58;;;;;;;15.32;13.60;;;16.50;99.90;;;;;;4997577;28;20516;-89
2021/06/09 04:32:25;;;;;;;16.33;13.32;;;16.60;99.90;;;;;;4998068;28;20050;-89
2021/06/09 04:34:54;;;;;;;17.15;13.95;;;16.60;99.90;;;;;;5014204;28;20104;-89
2021/06/09 04:37:23;;;;;;;18.75;14.52;;;16.70;99.90;;;;;;4997407;28;20061;-87
2021/06/09 04:39:51;;;;;;;16.27;13.57;;;16.90;99.90;;;;;;4996781;28;20483;-88
2021/06/09 04:42:21;;;;;;;18.85;13.20;;;17.00;99.90;;;;;;4997046;28;20442;-89
2021/06/09 04:44:48;;;;;;;18.08;13.68;;;17.10;99.90;;;;;;4996980;28;20487;-89
2021/06/09 04:47:15;;;;;;;18.58;12.82;;;17.20;99.90;;;;;;5013244;28;20414;-88
2021/06/09 04:49:44;;;;;;;16.33;13.07;;;17.30;99.90;;;;;;4996937;28;20053;-89
2021/06/09 04:52:12;;;;;;;15.90;12.88;;;17.50;99.90;;;;;;4997144;28;20139;-89
2021/06/09 04:54:40;;;;;;;16.60;12.95;;;17.70;99.90;;;;;;4996992;28;20477;-89
2021/06/09 04:57:08;;;;;;;14.43;11.90;;;18.10;99.90;;;;;;4996478;28;20131;-88
2021/06/09 04:59:35;;;;;;;12.52;11.32;;;18.40;99.90;;;;;;4996702;28;20050;-88
2021/06/09 05:02:02;;;;;;;12.27;11.07;;;18.90;99.90;;;;;;4996843;28;20056;-88
2021/06/09 05:04:29;;;;;;;20.38;10.77;;;19.10;99.90;;;;;;4996627;28;20132;-88
2021/06/09 05:06:56;;;;;;;14.00;11.18;;;19.30;99.90;;;;;;4998154;28;20482;-89
2021/06/09 05:09:23;;;;;;;14.75;10.20;;;19.90;99.90;;;;;;5015502;28;20089;-90
2021/06/09 05:12:09;;;;;;;15.88;10.30;;;20.80;99.90;;;;;;4998850;28;20132;-86
2021/06/09 05:15:03;;;;;;;17.90;10.50;;;21.60;99.90;;;;;;5014007;28;20049;-87
2021/06/09 05:17:37;;;;;;;23.75;10.02;;;21.80;99.90;;;;;;5005458;28;20076;-88
2021/06/09 05:20:08;;;;;;;24.02;10.23;;;22.50;99.90;;;;;;4996663;28;20053;-89
2021/06/09 05:22:40;;;;;;;25.65;10.18;;;22.90;99.90;;;;;;4996329;28;20124;-88
2021/06/09 05:25:08;;;;;;;18.65;11.57;;;23.40;99.90;;;;;;4996737;28;20053;-88
2021/06/09 05:27:38;;;;;;;16.77;10.77;;;22.90;99.90;;;;;;4996697;28;20477;-88
2021/06/09 05:30:06;;;;;;;14.30;11.52;;;22.40;99.90;;;;;;4996652;28;20140;-88
2021/06/09 05:32:35;;;;;;;17.52;11.45;;;22.00;99.90;;;;;;4996542;28;20100;-88
2021/06/09 05:35:04;;;;;;;18.52;12.57;;;21.50;99.90;;;;;;4996427;28;20064;-88
2021/06/09 05:37:32;;;;;;;16.95;11.85;;;21.10;99.90;;;;;;4996415;28;20056;-88
2021/06/09 05:40:00;;;;;;;15.52;11.25;;;20.80;99.90;;;;;;5013486;28;20171;-88
2021/06/09 05:42:27;;;;;;;15.40;11.10;;;20.70;99.90;;;;;;4996232;28;20049;-87
2021/06/09 05:44:54;;;;;;;18.92;10.68;;;20.80;99.90;;;;;;4996032;28;20077;-87
2021/06/09 05:47:22;;;;;;;17.23;9.98;;;21.00;99.90;;;;;;4997920;28;20068;-88
2021/06/09 05:50:15;;;;;;;25.02;11.32;;;21.00;99.90;;;;;;4997337;28;20081;-88
2021/06/09 05:52:42;;;;;;;18.70;10.63;;;21.30;99.90;;;;;;4997399;28;20093;-88
2021/06/09 05:55:22;;;;;;;15.55;10.52;;;21.60;99.90;;;;;;4996605;28;20057;-89
2021/06/09 05:57:50;;;;;;;16.25;10.68;;;22.10;99.90;;;;;;4996721;28;20062;-89
2021/06/09 06:00:21;;;;;;;15.80;9.75;;;22.30;99.90;;;;;;5000000;28;20064;-88
2021/06/09 06:02:49;;;;;;;14.73;10.00;;;22.40;99.90;;;;;;5000113;28;20052;-88
2021/06/09 06:05:17;;;;;;;10.90;9.55;;;22.60;99.90;;;;;;4999707;28;20053;-88
2021/06/09 06:07:44;;;;;;;13.50;9.60;;;22.50;99.90;;;;;;5017013;28;20050;-88
2021/06/09 06:10:13;;;;;;;10.63;9.50;;;22.50;99.90;;;;;;5000229;28;20045;-89
2021/06/09 06:12:41;;;;;;;12.77;9.35;;;22.50;99.90;;;;;;4999811;28;20499;-88
2021/06/09 06:15:11;;;;;;;9.30;8.50;;;22.60;99.90;;;;;;4999784;28;20510;-88
2021/06/09 06:17:39;;;;;;;10.45;9.48;;;22.80;99.90;;;;;;4999861;28;20089;-89
2021/06/09 06:20:12;;;;;;;10.43;9.43;;;23.20;99.90;;;;;;4999579;28;20060;-88
2021/06/09 06:22:39;;;;;;;10.23;9.18;;;23.40;99.90;;;;;;5017051;28;20060;-89
2021/06/09 06:25:07;;;;;;;9.35;8.55;;;23.70;99.90;;;;;;5000273;28;20053;-89
2021/06/09 06:27:34;;;;;;;9.30;8.48;;;24.40;99.90;;;;;;5018737;28;20061;-87
2021/06/09 06:30:03;;;;;;;9.63;8.63;;;25.20;99.90;;;;;;5016873;28;20062;-88
2021/06/09 06:32:31;;;;;;;9.13;8.32;;;25.00;99.90;;;;;;4999260;28;20046;-88
2021/06/09 06:34:59;;;;;;;10.23;9.15;;;25.00;99.90;;;;;;4999183;28;20136;-88
2021/06/09 06:37:28;;;;;;;8.52;7.63;;;25.20;99.90;;;;;;4999406;28;20486;-88
2021/06/09 06:39:56;;;;;;;9.30;8.45;;;26.00;99.90;;;;;;4999224;28;20105;-88
2021/06/09 06:42:23;;;;;;;8.68;7.97;;;26.40;99.90;;;;;;4999310;28;20081;-88
2021/06/09 06:44:50;;;;;;;8.77;7.47;;;26.10;99.90;;;;;;4999145;28;20088;-88
2021/06/09 06:47:19;;;;;;;9.50;8.60;;;25.90;99.90;;;;;;5015989;28;20064;-88
2021/06/09 06:49:48;;;;;;;8.98;8.00;;;25.90;99.90;;;;;;4999061;28;20097;-88
2021/06/09 06:52:14;;;;;;;8.77;7.90;;;26.20;99.90;;;;;;4999212;28;20433;-88
2021/06/09 06:54:41;;;;;;;13.20;9.05;;;27.90;99.90;;;;;;4982888;28;20466;-88
2021/06/09 06:57:09;;;;;;;15.00;8.70;;;27.80;99.90;;;;;;4998804;28;20046;-88
2021/06/09 06:59:36;;;;;;;9.07;8.18;;;27.60;99.90;;;;;;4998732;28;20085;-87
2021/06/09 07:02:07;;;;;;;12.77;8.40;;;26.80;99.90;;;;;;5016352;28;20125;-89
2021/06/09 07:04:34;;;;;;;9.85;8.82;;;26.00;99.90;;;;;;4999322;28;20081;-88
2021/06/09 07:07:02;;;;;;;9.23;7.75;;;25.90;99.90;;;;;;4999303;28;20054;-88
2021/06/09 07:09:29;;;;;;;11.93;8.88;;;26.00;99.90;;;;;;4998150;28;20126;-87
2021/06/09 07:11:56;;;;;;;9.23;8.43;;;25.90;99.90;;;;;;5016205;28;20049;-89
2021/06/09 07:14:27;;;;;;;8.85;7.95;;;25.50;99.90;;;;;;4999702;28;20088;-88
2021/06/09 07:16:55;;;;;;;9.45;8.57;;;25.50;99.90;;;;;;4998837;28;20127;-88
2021/06/09 07:19:23;;;;;;;9.43;8.60;;;25.70;99.90;;;;;;4998501;28;20524;-89
2021/06/09 07:22:10;;;;;;;7.88;7.28;;;26.40;99.90;;;;;;5001834;28;20071;-89
2021/06/09 07:24:37;;;;;;;9.60;8.38;;;27.40;99.90;;;;;;4998553;28;20128;-90
2021/06/09 07:27:04;;;;;;;9.13;8.20;;;28.40;99.90;;;;;;4998695;28;20051;-90
2021/06/09 07:29:33;;;;;;;9.45;8.65;;;28.80;99.90;;;;;;4999078;28;20450;-89
2021/06/09 07:32:00;;;;;;;12.80;7.90;;;29.40;99.90;;;;;;4998801;28;20491;-90
2021/06/09 07:34:27;;;;;;;9.70;7.65;;;30.00;99.90;;;;;;4998576;28;20159;-89
2021/06/09 07:37:04;;;;;;;10.98;8.10;;;30.90;96.80;;;;;;4998355;28;20076;-90
2021/06/09 07:39:35;;;;;;;8.70;7.93;;;31.30;93.50;;;;;;4998586;28;20123;-90
2021/06/09 07:42:08;;;;;;;8.57;7.72;;;31.70;91.80;;;;;;4998312;28;20046;-89
2021/06/09 07:45:08;;;;;;;9.02;8.13;;;31.40;91.40;;;;;;5000837;28;20136;-90
2021/06/09 07:47:39;;;;;;;13.20;8.85;;;30.80;90.90;;;;;;5032945;28;20109;-89
2021/06/09 07:50:08;;;;;;;9.98;7.63;;;29.80;93.00;;;;;;4998988;28;20541;-90
2021/06/09 07:52:37;;;;;;;9.07;8.27;;;30.40;94.00;;;;;;4998366;28;20133;-89
2021/06/09 07:55:05;;;;;;;8.70;7.32;;;31.80;91.80;;;;;;4997868;28;20049;-89
2021/06/09 07:57:34;;;;;;;8.18;7.38;;;33.60;85.10;;;;;;4997743;28;20455;-89
2021/06/09 08:00:05;;;;;;;9.25;7.07;;;34.60;75.30;;;;;;4997650;28;20076;-89
2021/06/09 08:02:35;;;;;;;8.05;7.30;;;36.60;70.50;;;;;;4998099;28;20084;-91
2021/06/09 08:05:06;;;;;;;10.98;7.05;;;36.10;67.10;;;;;;4998693;28;20042;-89
2021/06/09 08:07:36;;;;;;;10.30;7.30;;;36.20;67.60;;;;;;5016343;28;20375;-89
2021/06/09 08:10:06;;;;;;;8.02;7.43;;;34.70;67.40;;;;;;4998815;28;20129;-92
2021/06/09 08:12:34;;;;;;;8.93;7.22;;;33.30;69.40;;;;;;4998124;28;20057;-90
2021/06/09 08:15:02;;;;;;;7.40;6.70;;;32.30;74.40;;;;;;4997947;28;20046;-89
2021/06/09 08:17:29;;;;;;;7.85;7.15;;;31.20;77.10;;;;;;5015045;28;20418;-89
2021/06/09 08:19:56;;;;;;;7.97;7.28;;;31.20;79.60;;;;;;4997680;28;20054;-89
2021/06/09 08:22:23;;;;;;;8.43;7.43;;;30.70;80.90;;;;;;4997678;28;20056;-92
2021/06/09 08:24:50;;;;;;;7.63;7.10;;;31.10;81.80;;;;;;4997837;28;20092;-89
2021/06/09 08:27:16;;;;;;;8.00;7.38;;;31.20;80.30;;;;;;4997025;28;20053;-90
2021/06/09 08:29:43;;;;;;;7.18;6.28;;;31.30;81.80;;;;;;4997612;28;20049;-90
2021/06/09 08:32:10;;;;;;;8.07;6.95;;;33.20;77.30;;;;;;4997606;28;20052;-90
2021/06/09 08:34:37;;;;;;;7.90;7.20;;;33.60;74.50;;;;;;4997949;28;20140;-90
2021/06/09 08:37:04;;;;;;;8.27;6.53;;;33.10;73.60;;;;;;4997724;28;20129;-90
2021/06/09 08:39:31;;;;;;;7.53;6.93;;;33.80;72.60;;;;;;4998257;28;20490;-90
2021/06/09 08:42:01;;;;;;;6.47;5.88;;;34.80;68.50;;;;;;4998266;28;20053;-91
2021/06/09 08:44:29;;;;;;;7.93;6.78;;;35.40;66.40;;;;;;4997409;28;20054;-88
2021/06/09 08:46:58;;;;;;;7.32;6.63;;;34.50;66.10;;;;;;5014290;28;20046;-89
2021/06/09 08:49:25;;;;;;;7.20;6.60;;;33.20;68.70;;;;;;4997562;28;20052;-88
2021/06/09 08:51:55;;;;;;;6.53;6.03;;;33.00;70.30;;;;;;4997591;28;20057;-92
2021/06/09 08:54:24;;;;;;;7.80;6.20;;;33.90;69.20;;;;;;4997231;28;20052;-87
2021/06/09 08:56:51;;;;;;;6.70;6.18;;;33.40;68.40;;;;;;4996996;28;20136;-90
2021/06/09 08:59:22;;;;;;;8.15;6.15;;;35.00;67.50;;;;;;4997365;28;20046;-90
2021/06/09 09:01:49;;;;;;;6.05;5.55;;;36.50;64.50;;;;;;4997180;28;20095;-88
2021/06/09 09:04:16;;;;;;;5.45;5.00;;;37.00;64.70;;;;;;5002750;28;20056;-89
2021/06/09 09:06:43;;;;;;;6.53;5.90;;;39.40;59.50;;;;;;5012476;28;20467;-88
2021/06/09 09:09:10;;;;;;;7.55;6.35;;;39.10;56.30;;;;;;4998928;28;20053;-92
2021/06/09 09:11:37;;;;;;;6.47;5.88;;;38.60;57.50;;;;;;4997445;28;20049;-89
2021/06/09 09:14:04;;;;;;;7.13;5.85;;;36.10;59.30;;;;;;4997114;28;20064;-89
2021/06/09 09:16:31;;;;;;;7.15;6.55;;;34.70;60.80;;;;;;4997215;28;20476;-87
2021/06/09 09:19:02;;;;;;;7.45;6.75;;;34.10;63.10;;;;;;4996924;28;20470;-87
2021/06/09 09:21:38;;;;;;;6.63;6.03;;;33.90;64.80;;;;;;4997035;28;20056;-89
2021/06/09 09:24:10;;;;;;;6.30;5.72;;;34.80;63.10;;;;;;4996890;28;20129;-88
2021/06/09 09:26:39;;;;;;;10.88;7.28;;;36.00;61.10;;;;;;4996893;28;20136;-88
2021/06/09 09:29:19;;;;;;;6.30;5.78;;;37.90;59.60;;;;;;4996869;28;20075;-88
2021/06/09 09:31:54;;;;;;;6.03;5.50;;;39.80;55.30;;;;;;4996990;28;20461;-90
2021/06/09 09:34:28;;;;;;;6.13;5.55;;;39.60;54.30;;;;;;4996441;28;20061;-88
2021/06/09 09:37:04;;;;;;;5.93;5.35;;;40.10;54.70;;;;;;5013884;28;20050;-89
2021/06/09 09:39:31;;;;;;;5.30;5.00;;;41.00;51.70;;;;;;4996874;28;20050;-87
2021/06/09 09:42:21;;;;;;;5.68;5.18;;;39.80;50.90;;;;;;5013718;28;20442;-90
2021/06/09 09:44:49;;;;;;;5.70;5.20;;;38.90;52.10;;;;;;4996761;28;20501;-86
2021/06/09 09:47:23;;;;;;;5.40;5.00;;;37.80;54.00;;;;;;4996534;28;20058;-86
2021/06/09 09:49:51;;;;;;;7.07;6.20;;;39.00;54.00;;;;;;4996711;28;20054;-87
2021/06/09 09:52:20;;;;;;;6.80;6.25;;;38.70;54.90;;;;;;4996895;28;20137;-85
2021/06/09 09:55:05;;;;;;;7.70;6.90;;;37.00;56.60;;;;;;4999111;28;20084;-88
2021/06/09 09:57:35;;;;;;;6.50;5.68;;;38.00;57.00;;;;;;4996873;28;20053;-86
2021/06/09 10:00:05;;;;;;;10.25;6.60;;;39.40;57.10;;;;;;4996482;28;20054;-86
2021/06/09 10:02:32;;;;;;;7.15;6.47;;;39.70;54.80;;;;;;4996504;28;20045;-86
2021/06/09 10:05:12;;;;;;;11.80;6.13;;;38.40;55.40;;;;;;4996351;28;20054;-87
2021/06/09 10:07:59;;;;;;;10.75;6.47;;;36.00;57.90;;;;;;5013790;28;20096;-88
2021/06/09 10:10:26;;;;;;;6.72;6.03;;;35.20;59.60;;;;;;4996776;28;20050;-86
2021/06/09 10:13:17;;;;;;;6.82;6.07;;;35.00;60.00;;;;;;4995882;28;20561;-88
2021/06/09 10:15:49;;;;;;;6.18;5.68;;;35.80;58.10;;;;;;4996667;28;20076;-87
2021/06/09 10:18:25;;;;;;;5.97;5.55;;;34.10;60.40;;;;;;5013725;28;20050;-87
2021/06/09 10:20:52;;;;;;;7.18;6.10;;;34.80;62.00;;;;;;4998925;28;20058;-87
2021/06/09 10:23:36;;;;;;;6.18;5.57;;;35.20;61.10;;;;;;5008425;28;20049;-87
2021/06/09 10:26:11;;;;;;;6.13;5.53;;;36.50;59.50;;;;;;5002222;28;20554;-87
2021/06/09 10:28:58;;;;;;;4.15;3.70;;;37.00;57.10;;;;;;5013685;28;20133;-88
2021/06/09 10:31:28;;;;;;;5.28;4.53;;;37.90;52.40;;;;;;4995957;28;20057;-86
2021/06/09 10:33:56;;;;;;;4.70;4.40;;;38.90;53.90;;;;;;4996047;28;20049;-90
2021/06/09 10:36:24;;;;;;;4.25;3.92;;;38.40;51.80;;;;;;4995941;28;20100;-87
2021/06/09 10:38:52;;;;;;;3.92;3.72;;;40.40;51.00;;;;;;4995735;28;20089;-87
2021/06/09 10:41:23;;;;;;;4.00;3.80;;;40.60;49.40;;;;;;4995907;28;20053;-87
2021/06/09 10:43:53;;;;;;;11.32;5.25;;;42.80;47.10;;;;;;4995913;28;20125;-90
2021/06/09 10:46:26;;;;;;;6.40;4.60;;;41.90;46.50;;;;;;5015539;28;20049;-87
2021/06/09 10:48:58;;;;;;;26.65;5.07;;;41.70;48.30;;;;;;4999039;28;20116;-87
2021/06/09 10:51:25;;;;;;;4.68;4.30;;;41.60;48.10;;;;;;4999708;28;20559;-88
2021/06/09 10:53:52;;;;;;;5.15;4.75;;;39.90;48.10;;;;;;5016366;28;20045;-87
2021/06/09 10:56:22;;;;;;;8.18;4.50;;;37.80;50.50;;;;;;5016692;28;20053;-87
2021/06/09 10:58:49;;;;;;;6.72;5.00;;;35.50;53.80;;;;;;4999300;28;20145;-86
2021/06/09 11:01:21;;;;;;;4.90;4.50;;;34.20;54.70;;;;;;4998925;28;20512;-86
2021/06/09 11:03:49;;;;;;;4.93;4.63;;;33.20;55.90;;;;;;4999526;28;20487;-87
2021/06/09 11:06:16;;;;;;;4.82;4.43;;;32.10;58.00;;;;;;4998938;28;20410;-87
2021/06/09 11:08:43;;;;;;;4.05;3.85;;;30.80;60.70;;;;;;4998970;28;20045;-87
2021/06/09 11:11:21;;;;;;;4.70;4.00;;;30.30;60.40;;;;;;5016016;28;20050;-86
2021/06/09 11:13:48;;;;;;;3.97;3.78;;;29.60;62.40;;;;;;4998761;28;20053;-86
2021/06/09 11:16:21;;;;;;;4.20;3.80;;;29.20;62.70;;;;;;4999646;28;20519;-87
2021/06/09 11:18:50;;;;;;;4.82;4.40;;;29.50;63.40;;;;;;4998958;28;20053;-88
2021/06/09 11:21:24;;;;;;;4.45;4.15;;;29.20;64.80;;;;;;4998646;28;20050;-87
2021/06/09 11:23:50;;;;;;;;;;;29.00;66.40;;;;;;4999170;28;20057;-87
2021/06/09 11:26:28;;;;;;;4.63;4.32;;;28.70;68.90;;;;;;4998384;28;19921;-87
2021/06/09 11:28:55;;;;;;;6.28;4.95;;;28.70;69.50;;;;;;4998481;28;20058;-87
2021/06/09 11:31:26;;;;;;;5.28;4.95;;;28.60;70.90;;;;;;4998769;28;20049;-88
2021/06/09 11:34:02;;;;;;;5.05;4.72;;;28.20;75.50;;;;;;4998659;28;20057;-87
2021/06/09 11:36:36;;;;;;;6.15;5.68;;;28.20;77.00;;;;;;4998381;28;20414;-87
2021/06/09 11:39:29;;;;;;;5.90;5.50;;;28.10;79.30;;;;;;4998418;28;20057;-87
2021/06/09 11:41:56;;;;;;;8.32;5.70;;;27.80;78.70;;;;;;4994464;28;20073;-88
2021/06/09 11:44:27;;;;;;;8.85;5.53;;;27.30;80.00;;;;;;5011869;28;20051;-88
2021/06/09 11:47:21;;;;;;;6.22;5.63;;;26.90;81.10;;;;;;4999930;28;20050;-87
2021/06/09 11:49:51;;;;;;;6.70;5.88;;;26.40;84.50;;;;;;4998138;28;20185;-87
2021/06/09 11:52:19;;;;;;;5.50;5.10;;;26.10;91.50;;;;;;4997929;28;20046;-86
2021/06/09 11:54:46;;;;;;;6.40;5.93;;;26.00;97.10;;;;;;4997862;28;20417;-87
2021/06/09 11:57:18;;;;;;;7.20;4.80;;;25.90;98.90;;;;;;4996860;28;20060;-84
2021/06/09 11:59:51;;;;;;;9.88;4.30;;;25.60;96.60;;;;;;4998088;28;20525;-84
2021/06/09 12:02:22;;;;;;;8.43;4.50;;;24.90;96.30;;;;;;4997542;28;20137;-87
2021/06/09 12:04:50;;;;;;;4.22;3.75;;;24.30;99.70;;;;;;4997821;28;20058;-87
2021/06/09 12:07:20;;;;;;;10.02;4.45;;;23.70;99.90;;;;;;4997732;28;20049;-85
2021/06/09 12:09:48;;;;;;;5.05;4.40;;;23.30;99.90;;;;;;4997563;28;20053;-84
2021/06/09 12:12:18;;;;;;;11.23;4.63;;;23.10;99.90;;;;;;5014717;28;20061;-86
2021/06/09 12:14:47;;;;;;;4.97;4.57;;;22.70;99.90;;;;;;4997388;28;20050;-86
2021/06/09 12:17:18;;;;;;;5.15;4.72;;;22.50;99.90;;;;;;4996784;28;20084;-86
2021/06/09 12:19:51;;;;;;;11.32;5.20;;;22.20;99.90;;;;;;4997345;28;20056;-85
2021/06/09 12:22:22;;;;;;;5.28;4.78;;;22.10;99.90;;;;;;4996652;28;20046;-85
2021/06/09 12:25:06;;;;;;;4.78;4.38;;;21.80;99.90;;;;;;4996707;28;20054;-86
2021/06/09 12:27:35;;;;;;;7.50;4.93;;;21.90;99.90;;;;;;4997181;28;20057;-86
2021/06/09 12:30:11;;;;;;;7.38;4.35;;;21.80;99.90;;;;;;4997127;28;20046;-86
2021/06/09 12:32:40;;;;;;;4.47;4.10;;;21.60;99.90;;;;;;4996848;28;20129;-85
2021/06/09 12:35:14;;;;;;;6.40;4.70;;;21.50;99.90;;;;;;5014080;28;20069;-86
2021/06/09 12:37:49;;;;;;;4.72;4.32;;;21.50;99.90;;;;;;4996915;28;20406;-87
2021/06/09 12:40:20;;;;;;;4.40;4.10;;;21.60;99.90;;;;;;4997354;28;20482;-87
2021/06/09 12:42:52;;;;;;;4.45;4.15;;;21.70;99.90;;;;;;4996934;28;20054;-86
2021/06/09 12:45:21;;;;;;;4.60;4.20;;;21.90;99.90;;;;;;4996592;28;20056;-86
2021/06/09 12:47:48;;;;;;;6.40;4.82;;;22.20;99.90;;;;;;4996654;28;20085;-86
2021/06/09 12:50:25;;;;;;;5.25;4.75;;;22.40;99.90;;;;;;5014037;28;20410;-86
2021/06/09 12:52:54;;;;;;;8.05;6.45;;;22.60;99.90;;;;;;4996609;28;20052;-87